createdAt,value
2022-12-09T00:02:19.056Z,45.90
2022-12-09T00:05:21.472Z,44.90
2022-12-09T00:08:23.915Z,41.45
2022-12-09T00:11:26.868Z,35.55
2022-12-09T00:14:29.543Z,41.97
2022-12-09T00:17:32.142Z,37.08
2022-12-09T00:20:34.794Z,41.03
2022-12-09T00:23:37.134Z,43.92
2022-12-09T00:26:40.072Z,40.90
2022-12-09T00:29:42.145Z,43.20
2022-12-09T00:32:44.394Z,47.97
2022-12-09T00:35:48.485Z,44.58
2022-12-09T00:38:51.540Z,40.22
2022-12-09T00:41:54.057Z,38.58
2022-12-09T00:44:56.324Z,42.28
2022-12-09T00:47:58.444Z,36.70
2022-12-09T00:51:02.259Z,37.70
2022-12-09T00:54:05.337Z,43.38
2022-12-09T00:57:07.668Z,33.65
2022-12-09T01:00:10.868Z,34.47
2022-12-09T01:03:15.389Z,41.25
2022-12-09T01:06:22.687Z,36.35
2022-12-09T01:09:24.979Z,33.50
2022-12-09T01:12:27.267Z,38.30
2022-12-09T01:15:29.608Z,39.85
2022-12-09T01:18:32.077Z,33.45
2022-12-09T01:21:35.466Z,35.33
2022-12-09T01:24:40.553Z,42.30
2022-12-09T01:27:43.110Z,36.70
2022-12-09T01:30:47.583Z,47.50
2022-12-09T01:33:50.545Z,33.15
2022-12-09T01:36:53.284Z,33.15
2022-12-09T01:39:55.393Z,31.75
2022-12-09T01:42:57.609Z,33.85
2022-12-09T01:46:00.833Z,30.27
2022-12-09T01:49:03.356Z,25.40
2022-12-09T01:52:19.091Z,30.95
2022-12-09T01:55:22.757Z,24.38
2022-12-09T01:58:25.508Z,26.10
2022-12-09T02:01:28.244Z,24.23
2022-12-09T02:04:35.002Z,25.48
2022-12-09T02:07:37.636Z,28.52
2022-12-09T02:11:23.610Z,27.95
2022-12-09T02:14:40.941Z,28.48
2022-12-09T02:17:58.517Z,28.80
2022-12-09T02:21:08.892Z,24.65
2022-12-09T02:24:39.288Z,31.77
2022-12-09T02:28:14.437Z,31.58
2022-12-09T02:31:40.998Z,25.90
2022-12-09T02:35:00.827Z,27.30
2022-12-09T02:38:15.741Z,30.50
2022-12-09T02:41:24.403Z,31.48
2022-12-09T02:44:27.877Z,27.33
2022-12-09T02:47:34.106Z,26.70
2022-12-09T02:50:39.279Z,30.20
2022-12-09T02:53:43.401Z,31.10
2022-12-09T02:56:55.784Z,32.55
2022-12-09T02:59:59.345Z,31.80
2022-12-09T03:03:04.748Z,35.90
2022-12-09T03:06:14.448Z,47.83
2022-12-09T03:09:28.896Z,35.50
2022-12-09T03:12:35.640Z,45.45
2022-12-09T03:15:42.311Z,44.97
2022-12-09T03:19:03.796Z,39.92
2022-12-09T03:22:09.990Z,35.83
2022-12-09T03:25:24.596Z,37.67
2022-12-09T03:28:40.153Z,37.42
2022-12-09T03:31:43.658Z,42.88
2022-12-09T03:34:48.852Z,35.88
2022-12-09T03:37:52.473Z,36.08
2022-12-09T03:41:04.086Z,37.97
2022-12-09T03:44:19.307Z,36.08
2022-12-09T03:47:21.979Z,35.25
2022-12-09T03:50:27.533Z,37.65
2022-12-09T03:53:58.815Z,31.10
2022-12-09T03:57:01.522Z,34.72
2022-12-09T04:00:06.388Z,34.47
2022-12-09T04:03:14.919Z,35.13
2022-12-09T04:06:17.218Z,40.20
2022-12-09T04:09:19.428Z,36.65
2022-12-09T04:12:21.611Z,40.28
2022-12-09T04:15:23.741Z,43.70
2022-12-09T04:18:26.289Z,43.45
2022-12-09T04:21:28.627Z,45.47
2022-12-09T04:24:31.128Z,44.63
2022-12-09T04:27:33.219Z,49.38
2022-12-09T04:30:35.527Z,45.72
2022-12-09T04:33:38.131Z,42.20
2022-12-09T04:36:40.304Z,44.60
2022-12-09T04:39:42.645Z,43.97
2022-12-09T04:42:44.795Z,49.50
2022-12-09T04:45:47.242Z,45.15
2022-12-09T04:48:49.509Z,44.90
2022-12-09T04:51:51.743Z,41.80
2022-12-09T04:54:54.059Z,46.92
2022-12-09T04:57:56.191Z,44.75
2022-12-09T05:00:58.958Z,54.78
2022-12-09T05:04:01.609Z,47.83
2022-12-09T05:07:04.252Z,49.63
2022-12-09T05:10:08.566Z,47.75
2022-12-09T05:13:11.410Z,43.33
2022-12-09T05:16:17.790Z,50.15
2022-12-09T05:19:23.641Z,46.55
2022-12-09T05:22:26.041Z,47.45
2022-12-09T05:25:28.226Z,39.50
2022-12-09T05:28:32.441Z,49.70
2022-12-09T05:31:34.893Z,42.47
2022-12-09T05:34:37.443Z,42.10
2022-12-09T05:37:39.657Z,39.15
2022-12-09T05:40:42.068Z,47.20
2022-12-09T05:43:44.735Z,45.00
2022-12-09T05:46:47.760Z,38.40
2022-12-09T05:49:50.312Z,30.48
2022-12-09T05:52:52.437Z,39.58
2022-12-09T05:55:54.939Z,39.35
2022-12-09T05:58:58.864Z,43.97
2022-12-09T06:02:05.183Z,40.95
2022-12-09T06:05:15.564Z,34.10
2022-12-09T06:08:18.009Z,34.90
2022-12-09T06:11:22.023Z,36.65
2022-12-09T06:14:25.322Z,39.28
2022-12-09T06:17:27.804Z,35.72
2022-12-09T06:20:31.349Z,39.63
2022-12-09T06:23:36.054Z,38.42
2022-12-09T06:26:38.230Z,35.60
2022-12-09T06:29:40.811Z,31.48
2022-12-09T06:32:43.148Z,37.70
2022-12-09T06:35:45.487Z,37.75
2022-12-09T06:38:48.371Z,31.50
2022-12-09T06:41:50.438Z,34.28
2022-12-09T06:44:52.884Z,37.80
2022-12-09T06:47:55.169Z,46.38
2022-12-09T06:50:57.470Z,20.45
2022-12-09T06:53:59.830Z,28.50
2022-12-09T06:57:02.583Z,21.77
2022-12-09T07:00:06.687Z,28.25
2022-12-09T07:03:12.011Z,37.33
2022-12-09T07:06:33.743Z,33.90
2022-12-09T07:09:36.237Z,34.38
2022-12-09T07:12:38.943Z,38.13
2022-12-09T07:15:41.572Z,32.75
2022-12-09T07:18:44.008Z,36.42
2022-12-09T07:21:47.033Z,37.47
2022-12-09T07:24:49.403Z,33.88
2022-12-09T07:27:51.704Z,32.42
2022-12-09T07:30:53.903Z,38.17
2022-12-09T07:33:57.905Z,37.55
2022-12-09T07:37:01.142Z,40.70
2022-12-09T07:40:04.077Z,35.00
2022-12-09T07:43:07.581Z,33.65
2022-12-09T07:46:10.237Z,37.75
2022-12-09T07:49:12.899Z,39.50
2022-12-09T07:52:15.730Z,38.38
2022-12-09T07:55:17.968Z,42.70
2022-12-09T07:58:20.943Z,40.40
2022-12-09T08:01:33.281Z,32.45
2022-12-09T08:04:36.768Z,32.47
2022-12-09T08:07:44.148Z,38.05
2022-12-09T08:10:46.834Z,34.45
2022-12-09T08:13:50.354Z,34.63
2022-12-09T08:16:53.185Z,36.38
2022-12-09T08:19:56.523Z,43.60
2022-12-09T08:22:59.192Z,35.17
2022-12-09T08:26:04.010Z,43.13
2022-12-09T08:29:11.994Z,46.47
2022-12-09T08:32:17.971Z,37.03
2022-12-09T08:35:21.765Z,36.20
2022-12-09T08:38:24.035Z,40.13
2022-12-09T08:41:36.348Z,38.33
2022-12-09T08:44:40.084Z,36.85
2022-12-09T08:47:44.458Z,42.30
2022-12-09T08:50:47.414Z,36.58
2022-12-09T08:53:49.997Z,41.10
2022-12-09T08:56:55.601Z,42.60
2022-12-09T08:59:58.477Z,38.47
2022-12-09T09:03:00.950Z,31.48
2022-12-09T09:06:10.396Z,31.65
2022-12-09T09:09:14.485Z,34.28
2022-12-09T09:12:17.463Z,26.65
2022-12-09T09:15:22.026Z,21.55
2022-12-09T09:18:26.970Z,17.73
2022-12-09T09:21:33.999Z,18.05
2022-12-09T09:24:37.746Z,17.00
2022-12-09T09:27:39.782Z,20.35
2022-12-09T09:30:42.579Z,19.73
2022-12-09T09:33:46.097Z,24.77
2022-12-09T09:36:50.476Z,30.77
2022-12-09T09:39:52.761Z,30.95
2022-12-09T09:42:58.013Z,32.92
2022-12-09T09:46:01.105Z,31.77
2022-12-09T09:49:07.670Z,24.50
2022-12-09T09:52:16.947Z,21.98
2022-12-09T09:55:43.251Z,13.18
2022-12-09T09:58:54.893Z,13.85
2022-12-09T10:02:02.256Z,11.80
2022-12-09T10:05:31.689Z,9.82
2022-12-09T10:11:47.021Z,10.90
2022-12-09T10:15:02.975Z,14.00
2022-12-09T10:18:21.342Z,12.18
2022-12-09T10:21:24.546Z,10.20
2022-12-09T10:24:39.949Z,11.18
2022-12-09T10:28:15.496Z,10.73
2022-12-09T10:31:18.015Z,9.90
2022-12-09T10:34:20.346Z,15.48
2022-12-09T10:37:32.212Z,13.18
2022-12-09T10:40:47.426Z,13.35
2022-12-09T10:43:50.554Z,12.38
2022-12-09T10:46:59.698Z,12.13
2022-12-09T10:50:03.338Z,11.57
2022-12-09T10:53:12.917Z,13.05
2022-12-09T10:56:29.801Z,14.70
2022-12-09T10:59:32.799Z,10.75
2022-12-09T11:02:35.761Z,13.63
2022-12-09T11:05:38.526Z,11.75
2022-12-09T11:08:42.641Z,10.55
2022-12-09T11:11:49.813Z,12.68
2022-12-09T11:15:20.623Z,13.15
2022-12-09T11:18:32.381Z,11.10
2022-12-09T11:21:37.886Z,12.23
2022-12-09T11:24:41.567Z,11.65
2022-12-09T11:28:03.406Z,8.32
2022-12-09T11:31:35.081Z,9.93
2022-12-09T11:34:37.954Z,10.93
2022-12-09T11:37:40.876Z,12.40
2022-12-09T11:40:59.015Z,10.38
2022-12-09T11:44:01.711Z,17.75
2022-12-09T11:47:11.406Z,15.15
2022-12-09T11:50:17.657Z,22.27
2022-12-09T11:53:32.561Z,20.38
2022-12-09T11:56:40.286Z,25.17
2022-12-09T11:59:53.974Z,22.10
2022-12-09T12:03:16.010Z,16.70
2022-12-09T12:06:29.085Z,20.05
2022-12-09T12:09:39.918Z,20.75
2022-12-09T12:12:57.374Z,20.35
2022-12-09T12:16:09.152Z,20.42
2022-12-09T12:19:27.326Z,23.20
2022-12-09T12:22:54.706Z,19.38
2022-12-09T12:29:32.813Z,18.13
2022-12-09T12:33:53.437Z,15.70
2022-12-09T12:36:50.347Z,17.77
2022-12-09T12:40:26.763Z,20.05
2022-12-09T12:43:51.067Z,24.38
2022-12-09T12:47:05.089Z,24.15
2022-12-09T12:50:39.331Z,25.67
2022-12-09T12:54:09.352Z,19.23
2022-12-09T12:57:32.843Z,18.70
2022-12-09T13:01:02.595Z,20.40
2022-12-09T13:09:03.033Z,18.20
2022-12-09T13:12:17.063Z,18.35
2022-12-09T13:15:23.108Z,20.02
2022-12-09T13:18:29.496Z,23.10
2022-12-09T13:21:31.947Z,22.33
2022-12-09T13:24:46.609Z,19.70
2022-12-09T13:27:58.027Z,22.10
2022-12-09T13:31:01.565Z,21.33
2022-12-09T13:34:39.014Z,23.90
2022-12-09T13:37:43.746Z,22.05
2022-12-09T13:40:45.919Z,20.55
2022-12-09T13:44:03.704Z,19.73
2022-12-09T13:47:34.594Z,23.20
2022-12-09T13:50:59.976Z,21.60
2022-12-09T13:54:04.600Z,25.13
2022-12-09T13:57:17.981Z,25.92
2022-12-09T14:00:21.051Z,21.42
2022-12-09T14:03:31.624Z,12.77
2022-12-09T14:06:43.126Z,15.10
2022-12-09T14:09:45.310Z,13.40
2022-12-09T14:12:51.807Z,15.55
2022-12-09T14:16:27.854Z,18.05
2022-12-09T14:19:48.873Z,12.98
2022-12-09T14:23:09.759Z,29.35
2022-12-09T14:26:36.472Z,18.85
2022-12-09T14:30:06.702Z,18.85
2022-12-09T14:33:44.811Z,19.30
2022-12-09T14:36:56.458Z,23.98
2022-12-09T14:40:54.882Z,23.48
2022-12-09T14:44:18.968Z,27.15
2022-12-09T14:47:48.665Z,25.00
2022-12-09T14:51:19.144Z,20.52
2022-12-09T14:54:26.523Z,24.98
2022-12-09T14:57:36.543Z,24.77
2022-12-09T15:00:42.173Z,19.75
2022-12-09T15:03:59.682Z,19.08
2022-12-09T15:07:18.771Z,19.23
2022-12-09T15:10:38.688Z,22.92
2022-12-09T15:13:44.185Z,22.85
2022-12-09T15:16:50.680Z,26.80
2022-12-09T15:20:01.402Z,30.00
2022-12-09T15:23:11.011Z,21.05
2022-12-09T15:26:30.069Z,26.42
2022-12-09T15:29:35.325Z,23.50
2022-12-09T15:32:40.282Z,28.40
2022-12-09T15:35:50.125Z,24.98
2022-12-09T15:39:04.031Z,25.10
2022-12-09T15:42:10.981Z,27.38
2022-12-09T15:45:20.983Z,18.92
2022-12-09T15:48:29.329Z,26.95
2022-12-09T15:51:34.397Z,23.30
2022-12-09T15:54:41.503Z,24.83
2022-12-09T15:57:45.217Z,24.30
2022-12-09T16:00:49.401Z,27.17
2022-12-09T16:03:54.884Z,26.27
2022-12-09T16:07:06.472Z,21.15
2022-12-09T16:10:16.433Z,24.30
2022-12-09T16:16:27.056Z,25.58
2022-12-09T16:19:29.550Z,21.30
2022-12-09T16:22:33.094Z,26.75
2022-12-09T16:25:38.869Z,23.30
2022-12-09T16:28:40.889Z,24.63
2022-12-09T16:31:43.216Z,23.08
2022-12-09T16:34:57.158Z,24.20
2022-12-09T16:37:59.423Z,27.15
2022-12-09T16:41:07.816Z,29.85
2022-12-09T16:44:39.602Z,24.45
2022-12-09T16:47:41.971Z,23.38
2022-12-09T16:50:52.240Z,24.95
2022-12-09T16:53:54.933Z,21.75
2022-12-09T16:56:57.888Z,21.17
2022-12-09T16:59:59.889Z,19.35
2022-12-09T17:03:09.473Z,26.17
2022-12-09T17:06:17.200Z,28.17
2022-12-09T17:09:19.469Z,24.60
2022-12-09T17:12:21.621Z,24.27
2022-12-09T17:15:23.899Z,24.15
2022-12-09T17:18:26.888Z,26.30
2022-12-09T17:21:29.284Z,24.83
2022-12-09T17:24:31.261Z,29.15
2022-12-09T17:27:33.416Z,24.58
2022-12-09T17:30:39.373Z,26.80
2022-12-09T17:33:41.757Z,28.17
2022-12-09T17:36:43.962Z,33.55
2022-12-09T17:39:53.685Z,31.33
2022-12-09T17:42:57.934Z,28.13
2022-12-09T17:46:04.675Z,29.60
2022-12-09T17:49:06.788Z,30.70
2022-12-09T17:52:08.837Z,23.75
2022-12-09T17:55:12.011Z,25.65
2022-12-09T17:58:14.498Z,23.75
2022-12-09T18:01:19.814Z,24.00
2022-12-09T18:04:43.433Z,27.02
2022-12-09T18:07:48.746Z,26.15
2022-12-09T18:10:50.923Z,25.45
2022-12-09T18:13:54.235Z,26.98
2022-12-09T18:16:56.401Z,24.17
2022-12-09T18:19:58.528Z,27.05
2022-12-09T18:23:00.609Z,23.27
2022-12-09T18:26:07.386Z,24.95
2022-12-09T18:29:11.403Z,25.60
2022-12-09T18:32:13.822Z,23.23
2022-12-09T18:35:15.772Z,26.55
2022-12-09T18:38:18.369Z,24.52
2022-12-09T18:41:24.017Z,28.10
2022-12-09T18:44:26.683Z,26.40
2022-12-09T18:47:28.750Z,29.55
2022-12-09T18:50:30.782Z,27.33
2022-12-09T18:53:32.853Z,24.45
2022-12-09T18:56:35.578Z,28.52
2022-12-09T18:59:37.720Z,26.38
2022-12-09T19:02:39.827Z,28.10
2022-12-09T19:06:45.316Z,29.92
2022-12-09T19:09:47.374Z,28.92
2022-12-09T19:12:55.081Z,31.65
2022-12-09T19:16:04.448Z,31.15
2022-12-09T19:19:10.393Z,29.20
2022-12-09T19:22:13.129Z,33.22
2022-12-09T19:25:15.341Z,30.98
2022-12-09T19:28:17.687Z,30.58
2022-12-09T19:31:24.930Z,36.75
2022-12-09T19:34:29.344Z,34.17
2022-12-09T19:37:31.762Z,30.02
2022-12-09T19:40:34.128Z,30.23
2022-12-09T19:43:36.466Z,33.85
2022-12-09T19:46:38.938Z,40.83
2022-12-09T19:49:42.794Z,40.80
2022-12-09T19:52:44.901Z,36.25
2022-12-09T19:55:49.090Z,33.60
2022-12-09T19:58:52.200Z,36.28
2022-12-09T20:01:55.094Z,43.80
2022-12-09T20:04:57.241Z,39.55
2022-12-09T20:07:59.384Z,34.67
2022-12-09T20:11:01.595Z,41.25
2022-12-09T20:14:06.254Z,33.30
2022-12-09T20:17:09.058Z,36.40
2022-12-09T20:20:11.491Z,26.60
2022-12-09T20:23:13.669Z,25.50
2022-12-09T20:26:21.678Z,23.58
2022-12-09T20:32:30.232Z,20.48
2022-12-09T20:35:32.201Z,16.08
2022-12-09T20:38:37.519Z,21.92
2022-12-09T20:41:49.261Z,16.65
2022-12-09T20:44:51.960Z,19.42
2022-12-09T20:47:59.864Z,18.67
2022-12-09T20:51:27.657Z,15.85
2022-12-09T20:54:31.097Z,19.48
2022-12-09T20:57:33.842Z,18.92
2022-12-09T21:00:36.026Z,16.75
2022-12-09T21:03:38.270Z,17.55
2022-12-09T21:06:43.444Z,22.55
2022-12-09T21:09:46.897Z,23.15
2022-12-09T21:12:50.249Z,18.25
2022-12-09T21:15:56.015Z,18.67
2022-12-09T21:19:07.424Z,18.73
2022-12-09T21:22:09.638Z,21.83
2022-12-09T21:25:11.787Z,18.38
2022-12-09T21:28:21.864Z,17.23
2022-12-09T21:31:39.727Z,16.17
2022-12-09T21:34:41.901Z,19.15
2022-12-09T21:37:44.938Z,22.50
2022-12-09T21:40:47.205Z,16.58
2022-12-09T21:43:49.386Z,16.98
2022-12-09T21:46:51.565Z,29.23
2022-12-09T21:50:06.596Z,25.65
2022-12-09T21:53:09.481Z,21.58
2022-12-09T21:56:16.030Z,20.23
2022-12-09T21:59:18.903Z,23.33
2022-12-09T22:02:21.419Z,23.10
2022-12-09T22:05:24.528Z,20.70
2022-12-09T22:08:28.412Z,18.95
2022-12-09T22:11:34.545Z,20.05
2022-12-09T22:14:37.247Z,26.13
2022-12-09T22:18:05.511Z,23.33
2022-12-09T22:21:28.957Z,22.35
2022-12-09T22:24:31.585Z,23.42
2022-12-09T22:27:34.158Z,17.67
2022-12-09T22:30:37.924Z,22.08
2022-12-09T22:33:42.033Z,22.10
2022-12-09T22:36:44.707Z,27.48
2022-12-09T22:39:49.066Z,16.98
2022-12-09T22:42:52.083Z,21.45
2022-12-09T22:45:54.049Z,16.55
2022-12-09T22:48:57.802Z,20.70
2022-12-09T22:52:00.748Z,20.23
2022-12-09T22:55:02.923Z,17.60
2022-12-09T22:58:05.142Z,25.92
2022-12-09T23:01:18.999Z,27.38
2022-12-09T23:04:22.895Z,22.25
2022-12-09T23:07:25.102Z,29.90
2022-12-09T23:10:27.227Z,26.15
2022-12-09T23:13:29.998Z,19.80
2022-12-09T23:16:32.116Z,24.77
2022-12-09T23:19:34.237Z,28.67
2022-12-09T23:22:36.395Z,25.02
2022-12-09T23:25:38.890Z,27.35
2022-12-09T23:28:47.868Z,31.48
2022-12-09T23:31:50.553Z,28.17
2022-12-09T23:34:52.747Z,22.02
2022-12-09T23:37:54.811Z,30.52
2022-12-09T23:40:56.799Z,31.33
2022-12-09T23:44:00.705Z,24.70
2022-12-09T23:47:02.788Z,25.58
2022-12-09T23:50:06.564Z,25.67
2022-12-09T23:53:08.965Z,23.08
2022-12-09T23:56:17.283Z,22.58
2022-12-09T23:59:21.845Z,29.55
